createdAt,value
2023-01-25T00:00:21.727Z,92.73
2023-01-25T00:05:45.596Z,92.76
2023-01-25T00:10:51.985Z,92.76
2023-01-25T00:16:04.762Z,92.68
2023-01-25T00:21:23.825Z,92.63
2023-01-25T00:26:30.565Z,92.68
2023-01-25T00:31:54.640Z,92.70
2023-01-25T00:37:20.928Z,92.68
2023-01-25T00:42:24.750Z,92.60
2023-01-25T00:47:28.508Z,92.61
2023-01-25T00:52:32.544Z,92.60
2023-01-25T00:57:36.502Z,92.61
2023-01-25T01:02:41.744Z,92.63
2023-01-25T01:07:50.192Z,92.60
2023-01-25T01:12:55.905Z,92.61
2023-01-25T01:17:59.814Z,92.60
2023-01-25T01:23:05.286Z,92.63
2023-01-25T01:28:09.225Z,92.67
2023-01-25T01:33:17.645Z,92.75
2023-01-25T01:38:21.963Z,92.70
2023-01-25T01:43:25.820Z,92.68
2023-01-25T01:48:37.651Z,92.64
2023-01-25T01:53:46.067Z,92.58
2023-01-25T01:58:51.375Z,92.51
2023-01-25T02:03:56.840Z,92.48
2023-01-25T02:09:01.234Z,92.43
2023-01-25T02:14:04.989Z,92.43
2023-01-25T02:19:13.049Z,92.46
2023-01-25T02:24:21.750Z,92.50
2023-01-25T02:29:26.838Z,92.56
2023-01-25T02:34:30.776Z,92.55
2023-01-25T02:39:35.426Z,92.53
2023-01-25T02:44:41.840Z,92.45
2023-01-25T02:49:46.545Z,92.40
2023-01-25T02:54:50.911Z,92.35
2023-01-25T02:59:55.208Z,92.31
2023-01-25T03:05:00.430Z,92.34
2023-01-25T03:10:05.407Z,92.39
2023-01-25T03:15:13.612Z,92.43
2023-01-25T03:20:18.432Z,92.39
2023-01-25T03:25:22.879Z,92.41
2023-01-25T03:30:36.171Z,92.39
2023-01-25T03:35:41.565Z,92.39
2023-01-25T03:40:47.172Z,92.48
2023-01-25T03:45:58.207Z,92.47
2023-01-25T03:51:02.503Z,92.51
2023-01-25T03:56:09.991Z,92.39
2023-01-25T04:01:15.550Z,92.47
2023-01-25T04:06:21.778Z,92.48
2023-01-25T04:11:27.224Z,92.53
2023-01-25T04:16:31.824Z,92.57
2023-01-25T04:21:54.549Z,92.66
2023-01-25T04:27:05.949Z,92.67
2023-01-25T04:32:15.420Z,92.53
2023-01-25T04:37:20.379Z,92.51
2023-01-25T04:42:31.617Z,92.57
2023-01-25T04:47:36.073Z,92.75
2023-01-25T04:52:41.495Z,92.74
2023-01-25T04:57:50.223Z,92.76
2023-01-25T05:02:55.008Z,92.76
2023-01-25T05:08:03.002Z,92.66
2023-01-25T05:13:08.383Z,92.56
2023-01-25T05:18:12.027Z,92.41
2023-01-25T05:23:21.769Z,92.46
2023-01-25T05:28:26.029Z,92.51
2023-01-25T05:33:48.828Z,92.37
2023-01-25T05:38:54.428Z,92.36
2023-01-25T05:43:58.471Z,92.33
2023-01-25T05:49:04.151Z,92.20
2023-01-25T05:54:12.556Z,92.12
2023-01-25T05:59:20.028Z,92.12
2023-01-25T06:04:25.580Z,92.11
2023-01-25T06:09:31.750Z,92.11
2023-01-25T06:14:37.714Z,92.06
2023-01-25T06:19:42.703Z,92.10
2023-01-25T06:24:54.117Z,92.17
2023-01-25T06:29:57.839Z,92.16
2023-01-25T06:35:01.602Z,92.09
2023-01-25T06:40:05.933Z,92.12
2023-01-25T06:45:10.993Z,92.04
2023-01-25T06:50:17.888Z,92.04
2023-01-25T06:55:22.136Z,92.03
2023-01-25T07:00:26.157Z,91.99
2023-01-25T07:05:30.666Z,91.99
2023-01-25T07:10:35.913Z,92.03
2023-01-25T07:15:40.219Z,92.02
2023-01-25T07:20:44.741Z,91.97
2023-01-25T07:25:53.817Z,91.95
2023-01-25T07:30:57.760Z,91.95
2023-01-25T07:36:06.329Z,91.97
2023-01-25T07:41:10.032Z,91.96
2023-01-25T07:46:18.972Z,91.95
2023-01-25T07:51:24.072Z,91.92
2023-01-25T07:56:37.971Z,91.88
2023-01-25T08:01:42.603Z,91.92
2023-01-25T08:06:46.767Z,91.92
2023-01-25T08:11:51.035Z,91.86
2023-01-25T08:16:55.566Z,91.81
2023-01-25T08:22:00.384Z,91.78
2023-01-25T08:27:06.679Z,91.59
2023-01-25T08:32:10.438Z,91.47
2023-01-25T08:37:14.196Z,91.46
2023-01-25T08:42:18.956Z,91.41
2023-01-25T08:47:23.848Z,91.33
2023-01-25T08:52:27.840Z,91.36
2023-01-25T08:57:32.131Z,91.30
2023-01-25T09:02:36.067Z,91.30
2023-01-25T09:07:41.295Z,91.36
2023-01-25T09:12:45.250Z,91.33
2023-01-25T09:17:53.635Z,91.28
2023-01-25T09:23:00.410Z,91.21
2023-01-25T09:28:11.697Z,90.95
2023-01-25T09:33:16.989Z,90.94
2023-01-25T09:38:24.433Z,90.99
2023-01-25T09:43:37.086Z,90.74
2023-01-25T09:49:08.312Z,90.92
2023-01-25T09:54:16.807Z,91.02
2023-01-25T09:59:27.559Z,90.93
2023-01-25T10:04:43.355Z,90.85
2023-01-25T10:09:52.589Z,90.71
2023-01-25T10:14:56.691Z,90.53
2023-01-25T10:20:32.828Z,90.46
2023-01-25T10:26:02.687Z,90.27
2023-01-25T10:31:18.462Z,90.20
2023-01-25T10:36:29.363Z,90.19
2023-01-25T10:41:42.785Z,90.10
2023-01-25T10:47:08.928Z,90.09
2023-01-25T10:52:30.880Z,89.98
2023-01-25T10:57:35.791Z,89.52
2023-01-25T11:02:48.666Z,89.56
2023-01-25T11:07:52.817Z,89.34
2023-01-25T11:13:15.533Z,89.04
2023-01-25T11:18:21.304Z,89.17
2023-01-25T11:23:27.197Z,88.90
2023-01-25T11:28:31.086Z,88.89
2023-01-25T11:33:35.386Z,88.20
2023-01-25T11:38:45.046Z,88.50
2023-01-25T11:44:00.624Z,87.64
2023-01-25T11:49:30.386Z,88.05
2023-01-25T11:54:53.263Z,88.73
2023-01-25T12:00:06.368Z,88.61
2023-01-25T12:05:26.167Z,88.61
2023-01-25T12:10:54.327Z,88.70
2023-01-25T12:16:31.956Z,88.67
2023-01-25T12:21:52.419Z,88.31
2023-01-25T12:27:08.237Z,88.18
2023-01-25T12:32:26.236Z,88.63
2023-01-25T12:37:35.540Z,88.45
2023-01-25T12:42:44.884Z,88.61
2023-01-25T12:48:00.292Z,88.38
2023-01-25T12:53:14.530Z,87.43
2023-01-25T12:58:38.135Z,87.55
2023-01-25T13:04:12.681Z,87.67
2023-01-25T13:09:39.676Z,87.66
2023-01-25T13:14:43.471Z,87.88
2023-01-25T13:19:48.643Z,87.93
2023-01-25T13:25:24.804Z,87.63
2023-01-25T13:30:32.469Z,87.70
2023-01-25T13:35:45.327Z,87.62
2023-01-25T13:41:04.112Z,87.55
2023-01-25T13:46:10.295Z,87.82
2023-01-25T13:51:15.318Z,87.57
2023-01-25T13:56:31.614Z,87.15
2023-01-25T14:01:37.123Z,87.76
2023-01-25T14:06:41.715Z,87.95
2023-01-25T14:12:07.369Z,88.10
2023-01-25T14:17:21.192Z,88.01
2023-01-25T14:22:28.864Z,88.13
2023-01-25T14:27:34.686Z,88.12
2023-01-25T14:32:38.481Z,88.17
2023-01-25T14:37:45.334Z,88.10
2023-01-25T14:42:50.411Z,88.28
2023-01-25T14:47:59.425Z,88.19
2023-01-25T14:53:07.939Z,88.35
2023-01-25T14:58:25.822Z,88.39
2023-01-25T15:03:32.239Z,88.37
2023-01-25T15:08:41.107Z,88.44
2023-01-25T15:13:45.497Z,88.39
2023-01-25T15:19:25.608Z,88.48
2023-01-25T15:24:30.835Z,88.60
2023-01-25T15:29:34.807Z,88.68
2023-01-25T15:34:38.809Z,88.76
2023-01-25T15:39:43.103Z,88.76
2023-01-25T15:44:48.279Z,88.79
2023-01-25T15:49:59.649Z,88.81
2023-01-25T15:55:04.700Z,88.82
2023-01-25T16:00:19.051Z,88.87
2023-01-25T16:05:28.236Z,88.90
2023-01-25T16:10:33.676Z,88.96
2023-01-25T16:15:42.487Z,89.01
2023-01-25T16:20:47.687Z,89.03
2023-01-25T16:25:52.970Z,89.04
2023-01-25T16:30:58.397Z,89.09
2023-01-25T16:36:26.292Z,89.14
2023-01-25T16:41:30.965Z,89.16
2023-01-25T16:46:36.413Z,89.21
2023-01-25T16:51:49.952Z,89.20
2023-01-25T16:56:59.941Z,89.33
2023-01-25T17:24:08.565Z,89.36
2023-01-25T17:29:15.559Z,89.39
2023-01-25T17:34:22.644Z,89.50
2023-01-25T17:39:28.061Z,89.64
2023-01-25T17:44:36.352Z,89.73
2023-01-25T17:49:43.160Z,89.81
2023-01-25T17:54:50.951Z,89.81
2023-01-25T18:00:00.297Z,89.95
2023-01-25T18:05:09.893Z,89.95
2023-01-25T18:10:22.147Z,90.01
2023-01-25T18:15:33.024Z,90.07
2023-01-25T18:20:41.154Z,90.21
2023-01-25T18:25:50.031Z,90.28
2023-01-25T18:31:04.648Z,90.26
2023-01-25T18:36:15.203Z,90.52
2023-01-25T18:41:23.075Z,90.60
2023-01-25T18:46:28.897Z,90.44
2023-01-25T18:51:58.798Z,90.34
2023-01-25T18:57:04.354Z,90.38
2023-01-25T19:02:21.939Z,90.43
2023-01-25T19:07:31.354Z,90.78
2023-01-25T19:12:38.287Z,90.91
2023-01-25T19:17:43.553Z,90.68
2023-01-25T19:22:55.353Z,90.69
2023-01-25T19:28:04.349Z,90.80
2023-01-25T19:33:12.484Z,91.07
2023-01-25T19:38:18.570Z,90.90
2023-01-25T19:43:27.443Z,90.69
2023-01-25T19:48:39.921Z,90.77
2023-01-25T19:54:05.977Z,90.86
2023-01-25T19:59:20.543Z,91.11
2023-01-25T20:04:27.440Z,91.20
2023-01-25T20:09:39.707Z,91.01
2023-01-25T20:14:49.690Z,91.06
2023-01-25T20:20:00.116Z,91.05
2023-01-25T20:25:09.857Z,91.33
2023-01-25T20:30:19.675Z,91.14
2023-01-25T20:35:27.296Z,91.13
2023-01-25T20:40:33.892Z,91.31
2023-01-25T20:45:43.139Z,91.41
2023-01-25T20:50:49.013Z,91.64
2023-01-25T20:55:58.704Z,91.65
2023-01-25T21:01:14.159Z,91.72
2023-01-25T21:06:23.058Z,91.82
2023-01-25T21:11:33.205Z,91.92
2023-01-25T21:16:54.575Z,92.01
2023-01-25T21:22:01.262Z,91.93
2023-01-25T21:27:09.021Z,91.91
2023-01-25T21:32:14.441Z,92.01
2023-01-25T21:37:22.999Z,91.95
2023-01-25T21:42:32.553Z,91.73
2023-01-25T21:47:38.459Z,91.86
2023-01-25T21:52:42.446Z,91.95
2023-01-25T21:57:47.568Z,92.03
2023-01-25T22:02:52.964Z,91.98
2023-01-25T22:07:59.740Z,92.10
2023-01-25T22:13:04.758Z,92.11
2023-01-25T22:18:10.013Z,91.92
2023-01-25T22:23:15.058Z,92.04
2023-01-25T22:28:20.457Z,92.08
2023-01-25T22:33:28.940Z,92.19
2023-01-25T22:38:34.765Z,92.21
2023-01-25T22:43:41.189Z,92.32
2023-01-25T22:48:46.437Z,92.29
2023-01-25T22:53:51.458Z,92.21
2023-01-25T22:58:55.574Z,92.31
2023-01-25T23:04:00.135Z,92.04
2023-01-25T23:09:06.764Z,92.02
2023-01-25T23:14:31.045Z,92.15
2023-01-25T23:19:34.971Z,92.28
2023-01-25T23:24:39.495Z,92.39
2023-01-25T23:29:43.522Z,92.32
2023-01-25T23:34:53.482Z,92.23
2023-01-25T23:39:58.203Z,92.00
2023-01-25T23:45:02.525Z,92.13
2023-01-25T23:50:10.340Z,92.08
2023-01-25T23:55:14.565Z,92.23
